sensor_id;sensor_type;location;lat;lon;timestamp;temperature;humidity
52941;DHT22;62001;53.366;6.636;2023-07-13T00:00:37;15.60;99.90
52941;DHT22;62001;53.366;6.636;2023-07-13T00:03:04;15.60;99.90
52941;DHT22;62001;53.366;6.636;2023-07-13T00:05:30;15.60;99.90
52941;DHT22;62001;53.366;6.636;2023-07-13T00:07:56;15.60;99.90
52941;DHT22;62001;53.366;6.636;2023-07-13T00:10:22;15.70;99.90
52941;DHT22;62001;53.366;6.636;2023-07-13T00:12:49;15.70;99.90
52941;DHT22;62001;53.366;6.636;2023-07-13T00:15:21;15.80;99.90
52941;DHT22;62001;53.366;6.636;2023-07-13T00:17:52;15.80;99.90
52941;DHT22;62001;53.366;6.636;2023-07-13T00:20:20;15.80;99.90
52941;DHT22;62001;53.366;6.636;2023-07-13T00:22:53;15.90;99.90
52941;DHT22;62001;53.366;6.636;2023-07-13T00:25:21;15.90;99.90
52941;DHT22;62001;53.366;6.636;2023-07-13T00:27:50;15.90;99.90
52941;DHT22;62001;53.366;6.636;2023-07-13T00:30:16;15.90;99.90
52941;DHT22;62001;53.366;6.636;2023-07-13T00:32:43;15.90;99.90
52941;DHT22;62001;53.366;6.636;2023-07-13T00:35:09;16.00;99.90
52941;DHT22;62001;53.366;6.636;2023-07-13T00:37:35;16.00;99.90
52941;DHT22;62001;53.366;6.636;2023-07-13T00:40:05;16.00;99.90
52941;DHT22;62001;53.366;6.636;2023-07-13T00:42:31;16.10;99.90
52941;DHT22;62001;53.366;6.636;2023-07-13T00:47:40;16.10;99.90
52941;DHT22;62001;53.366;6.636;2023-07-13T00:50:09;16.10;99.90
52941;DHT22;62001;53.366;6.636;2023-07-13T00:52:41;16.10;99.90
52941;DHT22;62001;53.366;6.636;2023-07-13T00:55:09;16.20;99.90
52941;DHT22;62001;53.366;6.636;2023-07-13T00:57:37;16.20;99.90
52941;DHT22;62001;53.366;6.636;2023-07-13T01:00:05;16.20;99.90
52941;DHT22;62001;53.366;6.636;2023-07-13T01:02:38;16.10;99.90
52941;DHT22;62001;53.366;6.636;2023-07-13T01:05:17;16.10;99.90
52941;DHT22;62001;53.366;6.636;2023-07-13T01:07:44;16.10;99.90
52941;DHT22;62001;53.366;6.636;2023-07-13T01:10:11;16.00;99.90
52941;DHT22;62001;53.366;6.636;2023-07-13T01:12:38;16.00;99.90
52941;DHT22;62001;53.366;6.636;2023-07-13T01:15:04;16.00;99.90
52941;DHT22;62001;53.366;6.636;2023-07-13T01:17:33;15.90;99.90
52941;DHT22;62001;53.366;6.636;2023-07-13T01:20:00;15.90;99.90
52941;DHT22;62001;53.366;6.636;2023-07-13T01:22:26;15.90;99.90
52941;DHT22;62001;53.366;6.636;2023-07-13T01:24:53;15.90;99.90
52941;DHT22;62001;53.366;6.636;2023-07-13T01:27:24;15.90;99.90
52941;DHT22;62001;53.366;6.636;2023-07-13T01:29:52;15.90;99.90
52941;DHT22;62001;53.366;6.636;2023-07-13T01:32:22;15.90;99.90
52941;DHT22;62001;53.366;6.636;2023-07-13T01:34:50;15.90;99.90
52941;DHT22;62001;53.366;6.636;2023-07-13T01:37:19;16.00;99.90
52941;DHT22;62001;53.366;6.636;2023-07-13T01:39:46;15.90;99.90
52941;DHT22;62001;53.366;6.636;2023-07-13T01:42:12;15.90;99.90
52941;DHT22;62001;53.366;6.636;2023-07-13T01:44:39;15.90;99.90
52941;DHT22;62001;53.366;6.636;2023-07-13T01:47:05;15.90;99.90
52941;DHT22;62001;53.366;6.636;2023-07-13T01:49:31;15.90;99.90
52941;DHT22;62001;53.366;6.636;2023-07-13T01:51:57;15.90;99.90
52941;DHT22;62001;53.366;6.636;2023-07-13T01:54:23;15.90;99.90
52941;DHT22;62001;53.366;6.636;2023-07-13T01:56:49;16.00;99.90
52941;DHT22;62001;53.366;6.636;2023-07-13T01:59:15;15.90;99.90
52941;DHT22;62001;53.366;6.636;2023-07-13T02:01:41;15.90;99.90
52941;DHT22;62001;53.366;6.636;2023-07-13T02:04:07;15.90;99.90
52941;DHT22;62001;53.366;6.636;2023-07-13T02:06:33;15.90;99.90
52941;DHT22;62001;53.366;6.636;2023-07-13T02:08:59;15.80;99.90
52941;DHT22;62001;53.366;6.636;2023-07-13T02:11:25;15.80;99.90
52941;DHT22;62001;53.366;6.636;2023-07-13T02:14:01;15.80;99.90
52941;DHT22;62001;53.366;6.636;2023-07-13T02:16:28;15.90;99.90
52941;DHT22;62001;53.366;6.636;2023-07-13T02:18:54;15.80;99.90
52941;DHT22;62001;53.366;6.636;2023-07-13T02:21:22;15.80;99.90
52941;DHT22;62001;53.366;6.636;2023-07-13T02:23:49;15.80;99.90
52941;DHT22;62001;53.366;6.636;2023-07-13T02:26:15;15.80;99.90
52941;DHT22;62001;53.366;6.636;2023-07-13T02:28:41;15.80;99.90
52941;DHT22;62001;53.366;6.636;2023-07-13T02:31:09;15.80;99.90
52941;DHT22;62001;53.366;6.636;2023-07-13T02:33:36;15.80;99.90
52941;DHT22;62001;53.366;6.636;2023-07-13T02:36:02;15.80;99.90
52941;DHT22;62001;53.366;6.636;2023-07-13T02:38:29;15.70;99.90
52941;DHT22;62001;53.366;6.636;2023-07-13T02:40:55;15.70;99.90
52941;DHT22;62001;53.366;6.636;2023-07-13T02:43:22;15.70;99.90
52941;DHT22;62001;53.366;6.636;2023-07-13T02:45:47;15.70;99.90
52941;DHT22;62001;53.366;6.636;2023-07-13T02:48:14;15.70;99.90
52941;DHT22;62001;53.366;6.636;2023-07-13T02:50:40;15.60;99.90
52941;DHT22;62001;53.366;6.636;2023-07-13T02:53:06;15.60;99.90
52941;DHT22;62001;53.366;6.636;2023-07-13T02:55:32;15.50;99.90
52941;DHT22;62001;53.366;6.636;2023-07-13T02:57:58;15.60;99.90
52941;DHT22;62001;53.366;6.636;2023-07-13T03:00:24;15.50;99.90
52941;DHT22;62001;53.366;6.636;2023-07-13T03:02:50;15.50;99.90
52941;DHT22;62001;53.366;6.636;2023-07-13T03:05:17;15.50;99.90
52941;DHT22;62001;53.366;6.636;2023-07-13T03:07:43;15.50;99.90
52941;DHT22;62001;53.366;6.636;2023-07-13T03:10:10;15.60;99.90
52941;DHT22;62001;53.366;6.636;2023-07-13T03:12:36;15.60;99.90
52941;DHT22;62001;53.366;6.636;2023-07-13T03:15:02;15.60;99.90
52941;DHT22;62001;53.366;6.636;2023-07-13T03:17:27;15.60;99.90
52941;DHT22;62001;53.366;6.636;2023-07-13T03:19:53;15.60;99.90
52941;DHT22;62001;53.366;6.636;2023-07-13T03:22:20;15.60;99.90
52941;DHT22;62001;53.366;6.636;2023-07-13T03:24:46;15.60;99.90
52941;DHT22;62001;53.366;6.636;2023-07-13T03:27:13;15.50;99.90
52941;DHT22;62001;53.366;6.636;2023-07-13T03:29:39;15.60;99.90
52941;DHT22;62001;53.366;6.636;2023-07-13T03:32:05;15.50;99.90
52941;DHT22;62001;53.366;6.636;2023-07-13T03:34:31;15.60;99.90
52941;DHT22;62001;53.366;6.636;2023-07-13T03:36:58;15.60;99.90
52941;DHT22;62001;53.366;6.636;2023-07-13T03:39:24;15.60;99.90
52941;DHT22;62001;53.366;6.636;2023-07-13T03:41:50;15.60;99.90
52941;DHT22;62001;53.366;6.636;2023-07-13T03:44:17;15.70;99.90
52941;DHT22;62001;53.366;6.636;2023-07-13T03:46:43;15.70;99.90
52941;DHT22;62001;53.366;6.636;2023-07-13T03:49:10;15.70;99.90
52941;DHT22;62001;53.366;6.636;2023-07-13T03:51:36;15.70;99.90
52941;DHT22;62001;53.366;6.636;2023-07-13T03:54:02;15.70;99.90
52941;DHT22;62001;53.366;6.636;2023-07-13T03:56:29;15.70;99.90
52941;DHT22;62001;53.366;6.636;2023-07-13T03:58:56;15.70;99.90
52941;DHT22;62001;53.366;6.636;2023-07-13T04:01:23;15.70;99.90
52941;DHT22;62001;53.366;6.636;2023-07-13T04:03:51;15.70;99.90
52941;DHT22;62001;53.366;6.636;2023-07-13T04:06:23;15.80;99.90
52941;DHT22;62001;53.366;6.636;2023-07-13T04:08:52;15.80;99.90
52941;DHT22;62001;53.366;6.636;2023-07-13T04:11:19;15.80;99.90
52941;DHT22;62001;53.366;6.636;2023-07-13T04:13:46;15.90;99.90
52941;DHT22;62001;53.366;6.636;2023-07-13T04:16:14;15.90;99.90
52941;DHT22;62001;53.366;6.636;2023-07-13T04:18:40;15.90;99.90
52941;DHT22;62001;53.366;6.636;2023-07-13T04:21:07;16.00;99.90
52941;DHT22;62001;53.366;6.636;2023-07-13T04:23:35;16.00;99.90
52941;DHT22;62001;53.366;6.636;2023-07-13T04:26:01;16.00;99.90
52941;DHT22;62001;53.366;6.636;2023-07-13T04:28:27;16.00;99.90
52941;DHT22;62001;53.366;6.636;2023-07-13T04:30:54;16.00;99.90
52941;DHT22;62001;53.366;6.636;2023-07-13T04:33:20;16.10;99.90
52941;DHT22;62001;53.366;6.636;2023-07-13T04:35:53;16.00;99.90
52941;DHT22;62001;53.366;6.636;2023-07-13T04:38:27;16.10;99.90
52941;DHT22;62001;53.366;6.636;2023-07-13T04:40:59;16.20;99.90
52941;DHT22;62001;53.366;6.636;2023-07-13T04:43:25;16.20;99.90
52941;DHT22;62001;53.366;6.636;2023-07-13T04:48:18;16.30;99.90
52941;DHT22;62001;53.366;6.636;2023-07-13T04:50:45;16.40;99.90
52941;DHT22;62001;53.366;6.636;2023-07-13T04:53:11;16.50;99.90
52941;DHT22;62001;53.366;6.636;2023-07-13T04:55:37;16.60;99.90
52941;DHT22;62001;53.366;6.636;2023-07-13T04:58:04;16.70;99.90
52941;DHT22;62001;53.366;6.636;2023-07-13T05:00:30;16.80;99.90
52941;DHT22;62001;53.366;6.636;2023-07-13T05:02:57;16.90;99.90
52941;DHT22;62001;53.366;6.636;2023-07-13T05:05:25;17.10;99.90
52941;DHT22;62001;53.366;6.636;2023-07-13T05:07:52;17.10;99.90
52941;DHT22;62001;53.366;6.636;2023-07-13T05:10:18;17.30;99.90
52941;DHT22;62001;53.366;6.636;2023-07-13T05:12:44;17.50;99.90
52941;DHT22;62001;53.366;6.636;2023-07-13T05:15:11;17.70;99.90
52941;DHT22;62001;53.366;6.636;2023-07-13T05:17:37;18.00;99.90
52941;DHT22;62001;53.366;6.636;2023-07-13T05:20:05;18.10;99.90
52941;DHT22;62001;53.366;6.636;2023-07-13T05:22:32;18.50;99.90
52941;DHT22;62001;53.366;6.636;2023-07-13T05:24:57;19.10;99.90
52941;DHT22;62001;53.366;6.636;2023-07-13T05:27:23;20.10;99.90
52941;DHT22;62001;53.366;6.636;2023-07-13T05:29:49;21.00;99.90
52941;DHT22;62001;53.366;6.636;2023-07-13T05:32:17;21.90;99.90
52941;DHT22;62001;53.366;6.636;2023-07-13T05:34:43;22.80;99.90
52941;DHT22;62001;53.366;6.636;2023-07-13T05:37:09;23.70;99.90
52941;DHT22;62001;53.366;6.636;2023-07-13T05:39:35;24.40;99.90
52941;DHT22;62001;53.366;6.636;2023-07-13T05:42:02;25.20;99.90
52941;DHT22;62001;53.366;6.636;2023-07-13T05:44:28;25.90;99.90
52941;DHT22;62001;53.366;6.636;2023-07-13T05:46:54;26.50;99.90
52941;DHT22;62001;53.366;6.636;2023-07-13T05:49:22;27.00;99.90
52941;DHT22;62001;53.366;6.636;2023-07-13T05:51:48;27.20;99.90
52941;DHT22;62001;53.366;6.636;2023-07-13T05:54:14;27.20;99.90
52941;DHT22;62001;53.366;6.636;2023-07-13T05:56:40;27.50;99.90
52941;DHT22;62001;53.366;6.636;2023-07-13T05:59:06;28.00;99.90
52941;DHT22;62001;53.366;6.636;2023-07-13T06:01:32;28.40;99.90
52941;DHT22;62001;53.366;6.636;2023-07-13T06:03:58;28.80;99.90
52941;DHT22;62001;53.366;6.636;2023-07-13T06:06:24;29.10;99.00
52941;DHT22;62001;53.366;6.636;2023-07-13T06:08:50;29.20;97.60
52941;DHT22;62001;53.366;6.636;2023-07-13T06:11:19;28.90;96.60
52941;DHT22;62001;53.366;6.636;2023-07-13T06:13:45;28.30;96.60
52941;DHT22;62001;53.366;6.636;2023-07-13T06:16:12;27.80;97.10
52941;DHT22;62001;53.366;6.636;2023-07-13T06:18:39;27.80;97.10
52941;DHT22;62001;53.366;6.636;2023-07-13T06:21:11;27.80;96.70
52941;DHT22;62001;53.366;6.636;2023-07-13T06:23:37;27.90;96.50
52941;DHT22;62001;53.366;6.636;2023-07-13T06:26:05;27.90;96.10
52941;DHT22;62001;53.366;6.636;2023-07-13T06:28:32;27.70;96.00
52941;DHT22;62001;53.366;6.636;2023-07-13T06:30:58;28.00;95.80
52941;DHT22;62001;53.366;6.636;2023-07-13T06:33:24;28.30;94.70
52941;DHT22;62001;53.366;6.636;2023-07-13T06:35:51;28.10;94.90
52941;DHT22;62001;53.366;6.636;2023-07-13T06:38:17;28.10;95.10
52941;DHT22;62001;53.366;6.636;2023-07-13T06:40:43;28.50;94.90
52941;DHT22;62001;53.366;6.636;2023-07-13T06:43:09;28.90;94.50
52941;DHT22;62001;53.366;6.636;2023-07-13T06:45:43;29.60;93.60
52941;DHT22;62001;53.366;6.636;2023-07-13T06:48:11;30.00;91.90
52941;DHT22;62001;53.366;6.636;2023-07-13T06:50:37;29.50;91.60
52941;DHT22;62001;53.366;6.636;2023-07-13T06:53:03;28.90;91.70
52941;DHT22;62001;53.366;6.636;2023-07-13T06:55:29;28.40;92.10
52941;DHT22;62001;53.366;6.636;2023-07-13T06:57:55;27.70;92.30
52941;DHT22;62001;53.366;6.636;2023-07-13T07:00:21;27.20;92.90
52941;DHT22;62001;53.366;6.636;2023-07-13T07:02:47;26.60;93.60
52941;DHT22;62001;53.366;6.636;2023-07-13T07:05:13;26.10;94.60
52941;DHT22;62001;53.366;6.636;2023-07-13T07:07:39;25.90;95.20
52941;DHT22;62001;53.366;6.636;2023-07-13T07:10:05;25.60;95.30
52941;DHT22;62001;53.366;6.636;2023-07-13T07:12:31;25.40;95.80
52941;DHT22;62001;53.366;6.636;2023-07-13T07:14:57;25.20;96.00
52941;DHT22;62001;53.366;6.636;2023-07-13T07:17:23;25.00;95.90
52941;DHT22;62001;53.366;6.636;2023-07-13T07:19:49;24.50;96.50
52941;DHT22;62001;53.366;6.636;2023-07-13T07:22:15;24.20;97.20
52941;DHT22;62001;53.366;6.636;2023-07-13T07:24:41;24.20;96.80
52941;DHT22;62001;53.366;6.636;2023-07-13T07:27:06;24.20;96.20
52941;DHT22;62001;53.366;6.636;2023-07-13T07:29:32;24.20;95.80
52941;DHT22;62001;53.366;6.636;2023-07-13T07:31:59;24.60;95.10
52941;DHT22;62001;53.366;6.636;2023-07-13T07:34:26;24.80;94.40
52941;DHT22;62001;53.366;6.636;2023-07-13T07:36:52;24.80;94.30
52941;DHT22;62001;53.366;6.636;2023-07-13T07:39:19;24.80;94.80
52941;DHT22;62001;53.366;6.636;2023-07-13T07:41:44;24.70;94.90
52941;DHT22;62001;53.366;6.636;2023-07-13T07:44:10;24.50;94.60
52941;DHT22;62001;53.366;6.636;2023-07-13T07:46:36;24.20;94.80
52941;DHT22;62001;53.366;6.636;2023-07-13T07:49:02;23.90;94.90
52941;DHT22;62001;53.366;6.636;2023-07-13T07:51:28;23.80;95.60
52941;DHT22;62001;53.366;6.636;2023-07-13T07:53:54;23.80;95.40
52941;DHT22;62001;53.366;6.636;2023-07-13T07:56:20;24.00;95.10
52941;DHT22;62001;53.366;6.636;2023-07-13T07:58:46;24.10;94.80
52941;DHT22;62001;53.366;6.636;2023-07-13T08:01:12;24.10;94.70
52941;DHT22;62001;53.366;6.636;2023-07-13T08:03:38;24.10;94.80
52941;DHT22;62001;53.366;6.636;2023-07-13T08:06:04;24.20;95.20
52941;DHT22;62001;53.366;6.636;2023-07-13T08:08:29;24.20;95.20
52941;DHT22;62001;53.366;6.636;2023-07-13T08:10:55;24.20;94.90
52941;DHT22;62001;53.366;6.636;2023-07-13T08:13:21;24.00;94.80
52941;DHT22;62001;53.366;6.636;2023-07-13T08:15:47;23.80;94.80
52941;DHT22;62001;53.366;6.636;2023-07-13T08:18:15;23.50;94.70
52941;DHT22;62001;53.366;6.636;2023-07-13T08:20:41;23.30;95.40
52941;DHT22;62001;53.366;6.636;2023-07-13T08:23:09;23.20;95.60
52941;DHT22;62001;53.366;6.636;2023-07-13T08:25:35;22.90;95.30
52941;DHT22;62001;53.366;6.636;2023-07-13T08:28:02;22.70;95.90
52941;DHT22;62001;53.366;6.636;2023-07-13T08:30:28;22.50;96.30
52941;DHT22;62001;53.366;6.636;2023-07-13T08:32:54;22.30;96.60
52941;DHT22;62001;53.366;6.636;2023-07-13T08:35:21;22.10;96.90
52941;DHT22;62001;53.366;6.636;2023-07-13T08:37:46;22.10;97.10
52941;DHT22;62001;53.366;6.636;2023-07-13T08:40:13;22.30;97.80
52941;DHT22;62001;53.366;6.636;2023-07-13T08:42:53;22.60;97.80
52941;DHT22;62001;53.366;6.636;2023-07-13T08:48:02;22.50;97.50
52941;DHT22;62001;53.366;6.636;2023-07-13T08:50:46;22.20;97.50
52941;DHT22;62001;53.366;6.636;2023-07-13T08:53:14;21.90;97.70
52941;DHT22;62001;53.366;6.636;2023-07-13T08:55:41;21.60;98.30
52941;DHT22;62001;53.366;6.636;2023-07-13T08:58:13;21.40;99.30
52941;DHT22;62001;53.366;6.636;2023-07-13T09:03:23;21.50;99.90
52941;DHT22;62001;53.366;6.636;2023-07-13T09:05:57;21.90;99.90
52941;DHT22;62001;53.366;6.636;2023-07-13T09:08:47;22.50;99.90
52941;DHT22;62001;53.366;6.636;2023-07-13T09:16:27;23.70;97.80
52941;DHT22;62001;53.366;6.636;2023-07-13T09:18:58;23.50;97.00
52941;DHT22;62001;53.366;6.636;2023-07-13T09:21:30;23.20;97.30
52941;DHT22;62001;53.366;6.636;2023-07-13T09:24:01;23.00;98.90
52941;DHT22;62001;53.366;6.636;2023-07-13T09:26:30;22.70;99.90
52941;DHT22;62001;53.366;6.636;2023-07-13T09:29:09;22.40;99.90
52941;DHT22;62001;53.366;6.636;2023-07-13T09:31:49;21.90;99.90
52941;DHT22;62001;53.366;6.636;2023-07-13T09:34:17;21.20;99.90
52941;DHT22;62001;53.366;6.636;2023-07-13T09:36:43;20.80;99.90
52941;DHT22;62001;53.366;6.636;2023-07-13T09:44:26;20.00;99.90
52941;DHT22;62001;53.366;6.636;2023-07-13T09:46:54;19.80;99.90
52941;DHT22;62001;53.366;6.636;2023-07-13T09:49:28;19.70;99.90
52941;DHT22;62001;53.366;6.636;2023-07-13T09:52:06;19.80;99.90
52941;DHT22;62001;53.366;6.636;2023-07-13T09:54:35;20.20;99.90
52941;DHT22;62001;53.366;6.636;2023-07-13T09:57:02;20.60;99.90
52941;DHT22;62001;53.366;6.636;2023-07-13T09:59:32;21.00;99.90
52941;DHT22;62001;53.366;6.636;2023-07-13T10:01:58;21.10;99.90
52941;DHT22;62001;53.366;6.636;2023-07-13T10:04:32;20.90;99.90
52941;DHT22;62001;53.366;6.636;2023-07-13T10:07:06;20.80;99.90
52941;DHT22;62001;53.366;6.636;2023-07-13T10:09:33;20.60;99.90
52941;DHT22;62001;53.366;6.636;2023-07-13T10:11:59;20.30;99.90
52941;DHT22;62001;53.366;6.636;2023-07-13T10:14:25;20.30;99.90
52941;DHT22;62001;53.366;6.636;2023-07-13T10:16:59;20.20;99.90
52941;DHT22;62001;53.366;6.636;2023-07-13T10:19:31;20.30;99.90
52941;DHT22;62001;53.366;6.636;2023-07-13T10:22:24;20.40;99.90
52941;DHT22;62001;53.366;6.636;2023-07-13T10:24:51;20.60;99.90
52941;DHT22;62001;53.366;6.636;2023-07-13T10:27:19;20.70;99.90
52941;DHT22;62001;53.366;6.636;2023-07-13T10:32:20;21.20;99.90
52941;DHT22;62001;53.366;6.636;2023-07-13T10:34:48;21.10;99.90
52941;DHT22;62001;53.366;6.636;2023-07-13T10:37:23;21.20;99.90
52941;DHT22;62001;53.366;6.636;2023-07-13T10:39:54;21.20;99.90
52941;DHT22;62001;53.366;6.636;2023-07-13T10:42:29;21.20;99.90
52941;DHT22;62001;53.366;6.636;2023-07-13T10:44:56;21.10;99.90
52941;DHT22;62001;53.366;6.636;2023-07-13T10:47:22;21.10;99.90
52941;DHT22;62001;53.366;6.636;2023-07-13T10:49:53;21.20;99.90
52941;DHT22;62001;53.366;6.636;2023-07-13T10:52:42;21.20;99.90
52941;DHT22;62001;53.366;6.636;2023-07-13T10:55:36;21.40;99.90
52941;DHT22;62001;53.366;6.636;2023-07-13T10:58:13;21.60;99.90
52941;DHT22;62001;53.366;6.636;2023-07-13T11:03:20;21.50;99.90
52941;DHT22;62001;53.366;6.636;2023-07-13T11:05:48;21.50;99.90
52941;DHT22;62001;53.366;6.636;2023-07-13T11:08:34;21.70;99.90
52941;DHT22;62001;53.366;6.636;2023-07-13T11:11:03;22.00;99.90
52941;DHT22;62001;53.366;6.636;2023-07-13T11:13:57;22.10;99.90
52941;DHT22;62001;53.366;6.636;2023-07-13T11:21:31;22.30;99.90
52941;DHT22;62001;53.366;6.636;2023-07-13T11:24:04;22.30;99.90
52941;DHT22;62001;53.366;6.636;2023-07-13T11:26:52;22.40;99.90
52941;DHT22;62001;53.366;6.636;2023-07-13T11:31:54;22.10;99.90
52941;DHT22;62001;53.366;6.636;2023-07-13T11:34:39;22.20;99.90
52941;DHT22;62001;53.366;6.636;2023-07-13T11:37:11;22.30;99.90
52941;DHT22;62001;53.366;6.636;2023-07-13T11:39:41;22.40;99.90
52941;DHT22;62001;53.366;6.636;2023-07-13T11:42:12;22.40;99.90
52941;DHT22;62001;53.366;6.636;2023-07-13T11:44:52;22.30;99.90
52941;DHT22;62001;53.366;6.636;2023-07-13T11:47:23;22.10;99.90
52941;DHT22;62001;53.366;6.636;2023-07-13T11:49:55;22.10;99.90
52941;DHT22;62001;53.366;6.636;2023-07-13T11:52:43;22.30;99.90
52941;DHT22;62001;53.366;6.636;2023-07-13T11:55:18;22.50;99.90
52941;DHT22;62001;53.366;6.636;2023-07-13T11:58:02;22.80;99.90
52941;DHT22;62001;53.366;6.636;2023-07-13T12:00:31;22.90;99.90
52941;DHT22;62001;53.366;6.636;2023-07-13T12:02:59;22.90;99.90
52941;DHT22;62001;53.366;6.636;2023-07-13T12:05:27;22.80;99.90
52941;DHT22;62001;53.366;6.636;2023-07-13T12:07:53;22.60;99.90
52941;DHT22;62001;53.366;6.636;2023-07-13T12:10:25;22.60;99.90
52941;DHT22;62001;53.366;6.636;2023-07-13T12:12:58;22.60;99.90
52941;DHT22;62001;53.366;6.636;2023-07-13T12:15:32;22.70;99.90
52941;DHT22;62001;53.366;6.636;2023-07-13T12:17:59;22.80;99.60
52941;DHT22;62001;53.366;6.636;2023-07-13T12:20:37;22.80;98.50
52941;DHT22;62001;53.366;6.636;2023-07-13T12:23:05;22.90;99.00
52941;DHT22;62001;53.366;6.636;2023-07-13T12:25:32;22.90;99.10
52941;DHT22;62001;53.366;6.636;2023-07-13T12:27:58;22.50;98.90
52941;DHT22;62001;53.366;6.636;2023-07-13T12:35:23;21.10;99.90
52941;DHT22;62001;53.366;6.636;2023-07-13T12:37:51;20.70;99.90
52941;DHT22;62001;53.366;6.636;2023-07-13T12:40:21;20.50;99.90
52941;DHT22;62001;53.366;6.636;2023-07-13T12:42:52;20.50;99.90
52941;DHT22;62001;53.366;6.636;2023-07-13T12:45:24;20.60;99.90
52941;DHT22;62001;53.366;6.636;2023-07-13T12:47:57;20.80;99.90
52941;DHT22;62001;53.366;6.636;2023-07-13T12:50:36;20.90;99.90
52941;DHT22;62001;53.366;6.636;2023-07-13T12:53:05;20.90;99.90
52941;DHT22;62001;53.366;6.636;2023-07-13T12:55:48;20.90;99.90
52941;DHT22;62001;53.366;6.636;2023-07-13T12:58:29;20.80;99.90
52941;DHT22;62001;53.366;6.636;2023-07-13T13:00:57;20.80;99.90
52941;DHT22;62001;53.366;6.636;2023-07-13T13:03:37;20.80;99.90
52941;DHT22;62001;53.366;6.636;2023-07-13T13:08:49;21.60;99.90
52941;DHT22;62001;53.366;6.636;2023-07-13T13:11:19;21.60;99.90
52941;DHT22;62001;53.366;6.636;2023-07-13T13:13:45;21.50;99.90
52941;DHT22;62001;53.366;6.636;2023-07-13T13:16:22;21.40;99.90
52941;DHT22;62001;53.366;6.636;2023-07-13T13:18:49;21.30;99.90
52941;DHT22;62001;53.366;6.636;2023-07-13T13:21:17;21.30;99.90
52941;DHT22;62001;53.366;6.636;2023-07-13T13:23:43;21.30;99.90
52941;DHT22;62001;53.366;6.636;2023-07-13T13:26:14;21.20;99.90
52941;DHT22;62001;53.366;6.636;2023-07-13T13:28:44;21.20;99.90
52941;DHT22;62001;53.366;6.636;2023-07-13T13:31:11;21.10;99.90
52941;DHT22;62001;53.366;6.636;2023-07-13T13:33:42;20.90;99.90
52941;DHT22;62001;53.366;6.636;2023-07-13T13:36:19;20.80;99.90
52941;DHT22;62001;53.366;6.636;2023-07-13T13:38:46;20.60;99.90
52941;DHT22;62001;53.366;6.636;2023-07-13T13:41:14;20.60;99.90
52941;DHT22;62001;53.366;6.636;2023-07-13T13:43:41;20.60;99.90
52941;DHT22;62001;53.366;6.636;2023-07-13T13:46:20;20.50;99.90
52941;DHT22;62001;53.366;6.636;2023-07-13T13:48:48;20.80;99.90
52941;DHT22;62001;53.366;6.636;2023-07-13T13:51:18;20.90;99.90
52941;DHT22;62001;53.366;6.636;2023-07-13T13:53:45;20.90;99.90
52941;DHT22;62001;53.366;6.636;2023-07-13T13:56:12;20.80;99.90
52941;DHT22;62001;53.366;6.636;2023-07-13T13:58:38;20.70;99.90
52941;DHT22;62001;53.366;6.636;2023-07-13T14:01:04;20.70;99.90
52941;DHT22;62001;53.366;6.636;2023-07-13T14:03:34;20.60;99.90
52941;DHT22;62001;53.366;6.636;2023-07-13T14:06:00;20.60;99.90
52941;DHT22;62001;53.366;6.636;2023-07-13T14:08:26;20.70;99.90
52941;DHT22;62001;53.366;6.636;2023-07-13T14:10:55;20.80;99.90
52941;DHT22;62001;53.366;6.636;2023-07-13T14:13:28;20.90;99.90
52941;DHT22;62001;53.366;6.636;2023-07-13T14:15:57;21.00;99.90
52941;DHT22;62001;53.366;6.636;2023-07-13T14:18:25;21.10;99.90
52941;DHT22;62001;53.366;6.636;2023-07-13T14:20:51;21.30;99.90
52941;DHT22;62001;53.366;6.636;2023-07-13T14:23:18;21.40;99.90
52941;DHT22;62001;53.366;6.636;2023-07-13T14:25:45;21.50;99.90
52941;DHT22;62001;53.366;6.636;2023-07-13T14:28:24;21.60;99.90
52941;DHT22;62001;53.366;6.636;2023-07-13T14:30:52;22.00;99.90
52941;DHT22;62001;53.366;6.636;2023-07-13T14:33:18;22.20;99.90
52941;DHT22;62001;53.366;6.636;2023-07-13T14:35:44;22.40;99.90
52941;DHT22;62001;53.366;6.636;2023-07-13T14:38:18;22.70;99.90
52941;DHT22;62001;53.366;6.636;2023-07-13T14:40:45;23.00;99.90
52941;DHT22;62001;53.366;6.636;2023-07-13T14:43:13;23.20;99.90
52941;DHT22;62001;53.366;6.636;2023-07-13T14:45:57;23.30;99.90
52941;DHT22;62001;53.366;6.636;2023-07-13T14:48:24;23.30;99.90
52941;DHT22;62001;53.366;6.636;2023-07-13T14:50:59;23.20;99.90
52941;DHT22;62001;53.366;6.636;2023-07-13T14:53:26;23.10;99.90
52941;DHT22;62001;53.366;6.636;2023-07-13T14:55:55;23.00;99.90
52941;DHT22;62001;53.366;6.636;2023-07-13T14:58:21;23.00;99.90
52941;DHT22;62001;53.366;6.636;2023-07-13T15:00:47;22.80;99.90
52941;DHT22;62001;53.366;6.636;2023-07-13T15:03:21;22.60;99.90
52941;DHT22;62001;53.366;6.636;2023-07-13T15:05:47;22.50;99.90
52941;DHT22;62001;53.366;6.636;2023-07-13T15:08:15;22.40;99.90
52941;DHT22;62001;53.366;6.636;2023-07-13T15:10:41;22.30;99.90
52941;DHT22;62001;53.366;6.636;2023-07-13T15:13:18;22.20;99.90
52941;DHT22;62001;53.366;6.636;2023-07-13T15:15:47;22.10;99.90
52941;DHT22;62001;53.366;6.636;2023-07-13T15:18:16;22.20;99.90
52941;DHT22;62001;53.366;6.636;2023-07-13T15:20:44;22.40;99.90
52941;DHT22;62001;53.366;6.636;2023-07-13T15:23:11;22.40;99.90
52941;DHT22;62001;53.366;6.636;2023-07-13T15:25:38;22.30;99.90
52941;DHT22;62001;53.366;6.636;2023-07-13T15:28:04;22.30;99.90
52941;DHT22;62001;53.366;6.636;2023-07-13T15:30:34;22.30;99.90
52941;DHT22;62001;53.366;6.636;2023-07-13T15:35:37;22.30;99.90
52941;DHT22;62001;53.366;6.636;2023-07-13T15:38:14;22.30;99.90
52941;DHT22;62001;53.366;6.636;2023-07-13T15:40:41;22.30;99.90
52941;DHT22;62001;53.366;6.636;2023-07-13T15:43:11;22.20;99.90
52941;DHT22;62001;53.366;6.636;2023-07-13T15:45:39;22.30;99.90
52941;DHT22;62001;53.366;6.636;2023-07-13T15:48:22;22.30;99.90
52941;DHT22;62001;53.366;6.636;2023-07-13T15:50:50;22.30;99.90
52941;DHT22;62001;53.366;6.636;2023-07-13T15:53:24;22.20;99.90
52941;DHT22;62001;53.366;6.636;2023-07-13T15:55:51;22.20;99.90
52941;DHT22;62001;53.366;6.636;2023-07-13T15:58:18;22.30;99.90
52941;DHT22;62001;53.366;6.636;2023-07-13T16:00:44;22.40;99.50
52941;DHT22;62001;53.366;6.636;2023-07-13T16:03:11;22.50;99.70
52941;DHT22;62001;53.366;6.636;2023-07-13T16:05:38;22.50;99.30
52941;DHT22;62001;53.366;6.636;2023-07-13T16:08:06;22.40;99.30
52941;DHT22;62001;53.366;6.636;2023-07-13T16:10:36;22.30;99.80
52941;DHT22;62001;53.366;6.636;2023-07-13T16:13:15;22.30;99.70
52941;DHT22;62001;53.366;6.636;2023-07-13T16:15:42;22.20;99.60
52941;DHT22;62001;53.366;6.636;2023-07-13T16:18:11;22.10;99.50
52941;DHT22;62001;53.366;6.636;2023-07-13T16:20:46;22.10;99.70
52941;DHT22;62001;53.366;6.636;2023-07-13T16:23:15;22.20;99.60